Pagina principale
METAR-TAF:

METAR-TAF

Aeroporti :

Aeroporto di Madera

Funchal, Madera, Portogallo

latitudine: 32-41-52N, longitudine: 016-46-28W, altezza: 59 m

Osservazione

Il bollettino è stato emesso 37 minuti fa, alle 23:30 UTC
Vento 12 kt da nord/nord-est
Temperature 20°C
Umidità 68%
Pressione 1016 hPa
Visibilità 10 km o più
Nuvoloso ad un'altezza di 1500 ft

METAR: LPMA 192330Z 02012KT 9999 BKN015 20/14 Q1016

Ora: 01:07 (00:07 UTC)

Previsione

Il bollettino è stato emesso 1 ora e 37 minuti fa, alle 22:30 UTC
Previsione valida dal 20 alle 00 UTC al 20 alle 24 UTC
Vento 12 kt da nord/nord-est
Visibilità 10 km o più
Nubi sparse ad un'altezza di 1500 ft
Temporaneamente
dal 20 alle 00 UTC al 20 alle 24 UTC
Visibilità: 8000 m
Nuvoloso ad un'altezza di 1300 ft
Poco nuvoloso ad un'altezza di 2000 ft, Cumulo congesto.
rovesci di pioggia

TAF: LPMA 192230Z 2000/2024 02012KT 9999 SCT015 TEMPO 2000/2024 8000 -SHRA BKN013 FEW020TCU

Osservazioni e previsioni meteorologiche di più di 4000 aeroporti (messaggi METAR e TAF).

Le stazioni disponibili sono rappresentate dai dischi gialli e rossi sulla carta.

Puntare il mouse per vedere il nome della stazione.

Clicca sopra per visualizzare le osservazioni e previsioni meteorologiche.

Per cambiare la mappa : fare clic sui pulsanti verdi con una croce nera per ingrandire, il pulsante verde con un trattino per diminuire, o sulla freccia verde per le mappe adiacenti.


METAR-TAF: